createdAt,value
2022-09-30T00:01:53.103Z,10.00
2022-09-30T00:04:23.355Z,10.00
2022-09-30T00:06:54.142Z,10.00
2022-09-30T00:09:22.864Z,10.10
2022-09-30T00:11:51.508Z,10.00
2022-09-30T00:14:23.137Z,10.00
2022-09-30T00:16:52.753Z,10.00
2022-09-30T00:19:21.034Z,10.00
2022-09-30T00:21:49.231Z,10.00
2022-09-30T00:24:17.408Z,10.00
2022-09-30T00:26:45.538Z,10.00
2022-09-30T00:29:14.043Z,10.00
2022-09-30T00:31:42.253Z,10.00
2022-09-30T00:34:12.268Z,10.00
2022-09-30T00:36:44.307Z,10.00
2022-09-30T00:39:15.051Z,10.00
2022-09-30T00:41:43.745Z,9.90
2022-09-30T00:44:54.375Z,9.90
2022-09-30T00:47:55.648Z,9.90
2022-09-30T00:50:36.758Z,9.90
2022-09-30T00:53:19.766Z,9.80
2022-09-30T00:55:53.127Z,9.80
2022-09-30T00:58:26.780Z,9.80
2022-09-30T01:00:55.458Z,9.80
2022-09-30T01:03:24.433Z,9.80
2022-09-30T01:05:54.710Z,9.80
2022-09-30T01:08:24.530Z,9.80
2022-09-30T01:10:52.729Z,9.80
2022-09-30T01:13:22.521Z,9.70
2022-09-30T01:16:12.521Z,9.80
2022-09-30T01:18:55.155Z,9.70
2022-09-30T01:21:55.684Z,9.70
2022-09-30T01:24:42.870Z,9.70
2022-09-30T01:27:25.175Z,9.70
2022-09-30T01:30:07.497Z,9.70
2022-09-30T01:32:50.240Z,9.70
2022-09-30T01:35:27.170Z,9.70
2022-09-30T01:38:04.914Z,9.70
2022-09-30T01:40:42.342Z,9.70
2022-09-30T01:43:15.074Z,9.70
2022-09-30T01:45:48.183Z,9.70
2022-09-30T01:48:23.564Z,9.70
2022-09-30T01:50:57.271Z,9.70
2022-09-30T01:53:32.677Z,9.60
2022-09-30T01:56:07.205Z,9.60
2022-09-30T01:58:43.453Z,9.60
2022-09-30T02:01:19.191Z,9.60
2022-09-30T02:03:51.733Z,9.60
2022-09-30T02:06:23.898Z,9.60
2022-09-30T02:08:57.756Z,9.60
2022-09-30T02:11:29.301Z,9.60
2022-09-30T02:14:04.035Z,9.60
2022-09-30T02:16:39.960Z,9.60
2022-09-30T02:19:18.341Z,9.60
2022-09-30T02:21:52.314Z,9.50
2022-09-30T02:24:25.484Z,9.50
2022-09-30T02:26:56.836Z,9.50
2022-09-30T02:29:29.106Z,9.40
2022-09-30T02:32:02.216Z,9.40
2022-09-30T02:34:36.440Z,9.40
2022-09-30T02:37:09.386Z,9.40
2022-09-30T02:39:43.742Z,9.40
2022-09-30T02:42:16.428Z,9.40
2022-09-30T02:44:44.594Z,9.40
2022-09-30T02:47:15.901Z,9.30
2022-09-30T02:49:50.993Z,9.30
2022-09-30T02:52:30.369Z,9.30
2022-09-30T02:55:15.472Z,9.30
2022-09-30T02:57:54.883Z,9.20
2022-09-30T03:00:24.240Z,9.20
2022-09-30T03:02:57.520Z,9.20
2022-09-30T03:05:28.093Z,9.20
2022-09-30T03:07:57.221Z,9.20
2022-09-30T03:10:25.754Z,9.10
2022-09-30T03:13:12.059Z,9.10
2022-09-30T03:15:52.968Z,9.10
2022-09-30T03:18:42.090Z,9.10
2022-09-30T03:21:23.553Z,9.00
2022-09-30T03:24:07.842Z,9.00
2022-09-30T03:26:41.982Z,9.00
2022-09-30T03:29:17.681Z,9.00
2022-09-30T03:31:58.255Z,9.00
2022-09-30T03:34:33.191Z,8.90
2022-09-30T03:37:09.748Z,8.90
2022-09-30T03:39:55.073Z,8.90
2022-09-30T03:42:27.179Z,8.90
2022-09-30T03:45:02.116Z,8.90
2022-09-30T03:47:32.516Z,8.90
2022-09-30T03:50:04.162Z,8.90
2022-09-30T03:52:34.386Z,8.80
2022-09-30T03:55:04.918Z,8.90
2022-09-30T03:57:32.973Z,8.90
2022-09-30T04:00:01.778Z,8.90
2022-09-30T04:02:29.888Z,8.80
2022-09-30T04:04:57.960Z,8.80
2022-09-30T04:07:26.360Z,8.80
2022-09-30T04:09:56.372Z,8.80
2022-09-30T04:12:24.351Z,8.80
2022-09-30T04:14:52.203Z,8.70
2022-09-30T04:17:20.378Z,8.70
2022-09-30T04:19:48.356Z,8.70
2022-09-30T04:22:16.441Z,8.70
2022-09-30T04:24:44.560Z,8.70
2022-09-30T04:27:13.805Z,8.70
2022-09-30T04:29:41.655Z,8.70
2022-09-30T04:32:09.908Z,8.60
2022-09-30T04:34:38.184Z,8.60
2022-09-30T04:37:10.599Z,8.60
2022-09-30T04:39:39.102Z,8.60
2022-09-30T04:42:07.168Z,8.60
2022-09-30T04:44:36.416Z,8.60
2022-09-30T04:47:04.375Z,8.60
2022-09-30T04:49:32.244Z,8.60
2022-09-30T04:52:00.121Z,8.60
2022-09-30T04:54:28.116Z,8.50
2022-09-30T04:56:55.951Z,8.50
2022-09-30T04:59:23.994Z,8.50
2022-09-30T05:01:53.454Z,8.60
2022-09-30T05:04:22.373Z,8.50
2022-09-30T05:06:50.697Z,8.50
2022-09-30T05:09:18.586Z,8.50
2022-09-30T05:11:46.587Z,8.50
2022-09-30T05:14:14.478Z,8.50
2022-09-30T05:16:42.419Z,8.50
2022-09-30T05:19:11.743Z,8.50
2022-09-30T05:21:39.617Z,8.50
2022-09-30T05:24:07.591Z,8.50
2022-09-30T05:26:35.484Z,8.40
2022-09-30T05:29:03.395Z,8.50
2022-09-30T05:31:31.637Z,8.40
2022-09-30T05:33:59.627Z,8.40
2022-09-30T05:36:28.855Z,8.40
2022-09-30T05:38:57.034Z,8.40
2022-09-30T05:41:24.956Z,8.40
2022-09-30T05:43:52.808Z,8.40
2022-09-30T05:46:21.695Z,8.40
2022-09-30T05:48:49.671Z,8.40
2022-09-30T05:51:17.615Z,8.40
2022-09-30T05:53:47.193Z,8.40
2022-09-30T05:56:15.414Z,8.40
2022-09-30T05:58:43.388Z,8.40
2022-09-30T06:01:14.384Z,8.40
2022-09-30T06:03:43.182Z,8.40
2022-09-30T06:06:11.560Z,8.40
2022-09-30T06:08:40.314Z,8.40
2022-09-30T06:11:14.747Z,8.40
2022-09-30T06:13:44.019Z,8.50
2022-09-30T06:16:13.531Z,8.50
2022-09-30T06:18:42.502Z,8.50
2022-09-30T06:21:12.549Z,8.50
2022-09-30T06:23:41.025Z,8.50
2022-09-30T06:26:11.803Z,8.50
2022-09-30T06:28:41.490Z,8.60
2022-09-30T06:31:09.551Z,8.60
2022-09-30T06:33:37.528Z,8.60
2022-09-30T06:36:06.822Z,8.70
2022-09-30T06:38:37.260Z,8.70
2022-09-30T06:41:05.694Z,8.70
2022-09-30T06:43:41.422Z,8.80
2022-09-30T06:46:29.846Z,8.80
2022-09-30T06:49:13.568Z,8.80
2022-09-30T06:51:47.729Z,8.90
2022-09-30T06:54:15.830Z,8.90
2022-09-30T06:56:44.031Z,8.90
2022-09-30T06:59:12.449Z,9.00
2022-09-30T07:01:42.533Z,9.00
2022-09-30T07:04:11.738Z,9.10
2022-09-30T07:06:40.253Z,9.10
2022-09-30T07:09:09.064Z,9.20
2022-09-30T07:11:37.737Z,9.20
2022-09-30T07:14:05.738Z,9.30
2022-09-30T07:16:34.375Z,9.30
2022-09-30T07:19:04.503Z,9.40
2022-09-30T07:21:32.523Z,9.40
2022-09-30T07:24:01.423Z,9.50
2022-09-30T07:26:30.243Z,9.50
2022-09-30T07:28:59.999Z,9.50
2022-09-30T07:31:32.993Z,9.60
2022-09-30T07:34:05.081Z,9.70
2022-09-30T07:36:34.002Z,9.70
2022-09-30T07:39:05.820Z,9.70
2022-09-30T07:41:36.598Z,9.80
2022-09-30T07:44:06.607Z,9.80
2022-09-30T07:46:38.855Z,9.90
2022-09-30T07:49:12.687Z,10.00
2022-09-30T07:51:44.061Z,10.00
2022-09-30T07:54:15.382Z,10.10
2022-09-30T07:59:33.737Z,10.10
2022-09-30T08:02:02.233Z,10.20
2022-09-30T08:04:31.517Z,10.30
2022-09-30T08:07:01.129Z,10.30
2022-09-30T08:09:31.278Z,10.40
2022-09-30T08:11:59.533Z,10.40
2022-09-30T08:14:28.853Z,10.40
2022-09-30T08:16:58.581Z,10.50
2022-09-30T08:19:27.671Z,10.60
2022-09-30T08:21:58.039Z,10.70
2022-09-30T08:24:27.149Z,10.70
2022-09-30T08:26:55.831Z,10.80
2022-09-30T08:32:11.848Z,10.90
2022-09-30T08:34:39.826Z,10.90
2022-09-30T08:37:10.293Z,11.00
2022-09-30T08:39:38.893Z,11.10
2022-09-30T08:42:37.904Z,11.10
2022-09-30T08:45:15.864Z,11.20
2022-09-30T08:47:50.542Z,11.20
2022-09-30T08:50:27.979Z,11.30
2022-09-30T08:53:02.197Z,11.30
2022-09-30T08:55:43.144Z,11.40
2022-09-30T08:58:27.812Z,11.50
2022-09-30T09:00:59.079Z,11.60
2022-09-30T09:03:31.466Z,11.60
2022-09-30T09:06:17.228Z,11.70
2022-09-30T09:09:01.135Z,11.80
2022-09-30T09:11:43.454Z,11.90
2022-09-30T09:14:26.217Z,11.90
2022-09-30T09:17:09.649Z,12.00
2022-09-30T09:19:44.297Z,12.10
2022-09-30T09:22:12.527Z,12.10
2022-09-30T09:24:44.360Z,12.20
2022-09-30T09:27:19.855Z,12.30
2022-09-30T09:30:00.175Z,12.40
2022-09-30T09:32:29.519Z,12.50
2022-09-30T09:35:02.550Z,12.50
2022-09-30T09:37:58.239Z,12.60
2022-09-30T09:40:35.709Z,12.70
2022-09-30T09:43:18.650Z,12.80
2022-09-30T09:45:55.235Z,12.80
2022-09-30T09:48:23.191Z,12.90
2022-09-30T09:50:59.066Z,12.90
2022-09-30T09:53:45.330Z,13.00
2022-09-30T09:56:19.561Z,13.10
2022-09-30T09:59:06.172Z,13.20
2022-09-30T10:01:34.319Z,13.30
2022-09-30T10:04:15.683Z,13.30
2022-09-30T10:06:49.573Z,13.30
2022-09-30T10:09:32.156Z,13.40
2022-09-30T10:12:27.127Z,13.50
2022-09-30T10:15:01.134Z,13.60
2022-09-30T10:17:31.380Z,13.60
2022-09-30T10:20:04.905Z,13.70
2022-09-30T10:22:33.942Z,13.80
2022-09-30T10:25:16.507Z,13.80
2022-09-30T10:27:52.200Z,13.90
2022-09-30T10:30:39.943Z,14.00
2022-09-30T10:33:17.208Z,14.10
2022-09-30T10:35:56.258Z,14.10
2022-09-30T10:38:29.272Z,14.20
2022-09-30T10:40:57.774Z,14.30
2022-09-30T10:43:33.064Z,14.30
2022-09-30T10:46:26.850Z,14.40
2022-09-30T10:48:55.224Z,14.50
2022-09-30T10:51:27.157Z,14.50
2022-09-30T10:53:56.512Z,14.60
2022-09-30T10:56:34.819Z,14.70
2022-09-30T10:59:05.673Z,14.80
2022-09-30T11:01:39.826Z,14.80
2022-09-30T11:04:11.593Z,14.90
2022-09-30T11:06:41.424Z,14.90
2022-09-30T11:09:15.438Z,14.90
2022-09-30T11:11:48.247Z,15.00
2022-09-30T11:14:27.828Z,15.10
2022-09-30T11:17:06.355Z,15.10
2022-09-30T11:19:40.706Z,15.20
2022-09-30T11:22:27.381Z,15.30
2022-09-30T11:24:57.298Z,15.30
2022-09-30T11:27:33.858Z,15.40
2022-09-30T11:30:11.120Z,15.40
2022-09-30T11:32:51.092Z,15.50
2022-09-30T11:35:49.968Z,15.50
2022-09-30T11:38:40.832Z,15.60
2022-09-30T11:41:12.803Z,15.70
2022-09-30T11:43:50.430Z,15.70
2022-09-30T11:46:47.947Z,15.80
2022-09-30T11:49:37.426Z,15.80
2022-09-30T11:52:15.948Z,15.90
2022-09-30T11:54:57.925Z,16.00
2022-09-30T11:57:31.629Z,16.00
2022-09-30T12:00:03.630Z,16.10
2022-09-30T12:02:38.535Z,16.10
2022-09-30T12:05:10.292Z,16.20
2022-09-30T12:07:44.784Z,16.30
2022-09-30T12:10:22.107Z,16.30
2022-09-30T12:12:55.619Z,16.40
2022-09-30T12:15:26.319Z,16.50
2022-09-30T12:18:00.560Z,16.50
2022-09-30T12:20:30.237Z,16.70
2022-09-30T12:23:03.687Z,16.70
2022-09-30T12:25:37.784Z,16.60
2022-09-30T12:28:23.300Z,16.70
2022-09-30T12:30:53.102Z,16.70
2022-09-30T12:33:44.056Z,16.70
2022-09-30T12:36:32.288Z,16.70
2022-09-30T12:39:26.761Z,16.80
2022-09-30T12:42:25.413Z,16.90
2022-09-30T12:45:18.288Z,17.00
2022-09-30T12:47:49.023Z,17.00
2022-09-30T12:50:21.682Z,17.00
2022-09-30T12:52:50.926Z,17.00
2022-09-30T12:55:28.162Z,17.00
2022-09-30T12:57:57.669Z,17.10
2022-09-30T13:00:30.770Z,17.10
2022-09-30T13:03:04.052Z,17.20
2022-09-30T13:06:06.423Z,17.20
2022-09-30T13:08:48.977Z,17.30
2022-09-30T13:11:36.287Z,17.40
2022-09-30T13:14:17.039Z,17.40
2022-09-30T13:17:16.399Z,17.40
2022-09-30T13:19:45.772Z,17.40
2022-09-30T13:22:53.983Z,17.30
2022-09-30T13:25:23.242Z,17.40
2022-09-30T13:27:53.940Z,17.40
2022-09-30T13:30:36.433Z,17.40
2022-09-30T13:33:30.882Z,17.50
2022-09-30T13:36:07.743Z,17.60
2022-09-30T13:38:39.190Z,17.60
2022-09-30T13:41:16.835Z,17.60
2022-09-30T13:43:50.923Z,17.70
2022-09-30T13:46:30.145Z,17.70
2022-09-30T13:49:03.285Z,17.70
2022-09-30T13:51:33.889Z,17.80
2022-09-30T13:54:08.399Z,17.80
2022-09-30T13:56:40.162Z,17.80
2022-09-30T13:59:39.074Z,17.80
2022-09-30T14:02:44.051Z,17.80
2022-09-30T14:05:36.046Z,17.80
2022-09-30T14:08:30.306Z,17.70
2022-09-30T14:11:12.720Z,17.60
2022-09-30T14:13:51.179Z,17.60
2022-09-30T14:17:01.917Z,17.60
2022-09-30T14:19:46.419Z,17.60
2022-09-30T14:22:16.338Z,17.60
2022-09-30T14:24:44.434Z,17.50
2022-09-30T14:27:59.860Z,17.50
2022-09-30T14:30:28.780Z,17.50
2022-09-30T14:32:59.207Z,17.50
2022-09-30T14:35:30.171Z,17.50
2022-09-30T14:38:02.582Z,17.50
2022-09-30T14:40:32.445Z,17.60
2022-09-30T14:43:02.998Z,17.60
2022-09-30T14:45:34.403Z,17.60
2022-09-30T14:48:09.526Z,17.60
2022-09-30T14:50:43.145Z,17.70
2022-09-30T14:53:26.975Z,17.70
2022-09-30T14:55:55.090Z,17.70
2022-09-30T14:58:28.662Z,17.70
2022-09-30T15:01:06.061Z,17.70
2022-09-30T15:03:36.492Z,17.70
2022-09-30T15:06:17.306Z,17.70
2022-09-30T15:08:47.469Z,17.70
2022-09-30T15:11:20.260Z,17.70
2022-09-30T15:13:50.217Z,17.70
2022-09-30T15:16:25.738Z,17.80
2022-09-30T15:18:54.518Z,17.80
2022-09-30T15:21:25.254Z,17.80
2022-09-30T15:24:00.674Z,17.80
2022-09-30T15:26:29.394Z,17.90
2022-09-30T15:28:57.594Z,17.80
2022-09-30T15:31:27.726Z,17.80
2022-09-30T15:34:07.885Z,17.90
2022-09-30T15:36:37.083Z,17.90
2022-09-30T15:39:14.706Z,17.90
2022-09-30T15:41:42.765Z,18.00
2022-09-30T15:44:18.855Z,18.00
2022-09-30T15:47:03.819Z,18.00
2022-09-30T15:49:35.372Z,18.10
2022-09-30T15:52:29.371Z,18.00
2022-09-30T15:54:59.168Z,18.00
2022-09-30T15:57:54.057Z,18.00
2022-09-30T16:00:33.433Z,17.90
2022-09-30T16:03:25.802Z,17.90
2022-09-30T16:05:54.405Z,17.70
2022-09-30T16:08:27.581Z,17.70
2022-09-30T16:10:59.680Z,17.60
2022-09-30T16:13:30.173Z,17.50
2022-09-30T16:15:59.263Z,17.50
2022-09-30T16:18:32.678Z,17.40
2022-09-30T16:21:04.951Z,17.40
2022-09-30T16:23:37.733Z,17.30
2022-09-30T16:26:21.294Z,17.30
2022-09-30T16:28:49.184Z,17.20
2022-09-30T16:31:17.370Z,17.10
2022-09-30T16:33:46.449Z,17.00
2022-09-30T16:36:14.801Z,17.00
2022-09-30T16:38:43.235Z,17.00
2022-09-30T16:41:13.641Z,16.90
2022-09-30T16:43:43.904Z,16.80
2022-09-30T16:46:12.950Z,16.80
2022-09-30T16:48:41.185Z,16.70
2022-09-30T16:51:14.403Z,16.60
2022-09-30T16:53:42.877Z,16.60
2022-09-30T16:56:17.026Z,16.50
2022-09-30T16:58:46.845Z,16.50
2022-09-30T17:01:19.998Z,16.40
2022-09-30T17:03:48.181Z,16.30
2022-09-30T17:06:17.335Z,16.20
2022-09-30T17:08:46.074Z,16.20
2022-09-30T17:11:14.876Z,16.20
2022-09-30T17:13:42.896Z,16.10
2022-09-30T17:16:12.672Z,16.00
2022-09-30T17:18:40.672Z,16.00
2022-09-30T17:21:08.600Z,16.00
2022-09-30T17:23:36.682Z,15.90
2022-09-30T17:26:05.762Z,15.90
2022-09-30T17:28:34.449Z,15.90
2022-09-30T17:31:02.748Z,15.80
2022-09-30T17:33:36.166Z,15.70
2022-09-30T17:36:06.928Z,15.70
2022-09-30T17:38:35.553Z,15.60
2022-09-30T17:41:21.409Z,15.60
2022-09-30T17:43:49.437Z,15.50
2022-09-30T17:46:21.269Z,15.50
2022-09-30T17:48:51.323Z,15.50
2022-09-30T17:51:19.294Z,15.40
2022-09-30T17:53:48.207Z,15.40
2022-09-30T17:56:19.467Z,15.40
2022-09-30T17:58:50.515Z,15.30
2022-09-30T18:01:20.565Z,15.30
2022-09-30T18:03:52.983Z,15.30
2022-09-30T18:06:21.582Z,15.20
2022-09-30T18:08:49.662Z,15.20
2022-09-30T18:11:21.452Z,15.10
2022-09-30T18:13:55.861Z,15.10
2022-09-30T18:16:24.524Z,15.10
2022-09-30T18:18:53.892Z,15.00
2022-09-30T18:21:21.879Z,15.00
2022-09-30T18:23:51.798Z,14.90
2022-09-30T18:26:19.701Z,14.90
2022-09-30T18:28:50.814Z,14.90
2022-09-30T18:31:28.290Z,14.90
2022-09-30T18:33:58.292Z,14.80
2022-09-30T18:36:29.423Z,14.80
2022-09-30T18:38:58.379Z,14.80
2022-09-30T18:41:26.886Z,14.70
2022-09-30T18:43:59.675Z,14.70
2022-09-30T18:46:27.948Z,14.70
2022-09-30T18:48:57.765Z,14.70
2022-09-30T18:51:26.085Z,14.70
2022-09-30T18:53:57.570Z,14.60
2022-09-30T18:56:26.625Z,14.60
2022-09-30T18:58:54.562Z,14.60
2022-09-30T19:01:22.608Z,14.60
2022-09-30T19:03:51.993Z,14.60
2022-09-30T19:06:21.697Z,14.60
2022-09-30T19:08:50.098Z,14.60
2022-09-30T19:11:18.571Z,14.60
2022-09-30T19:13:48.180Z,14.60
2022-09-30T19:16:18.400Z,14.60
2022-09-30T19:18:47.153Z,14.50
2022-09-30T19:21:20.282Z,14.60
2022-09-30T19:23:50.284Z,14.60
2022-09-30T19:26:18.264Z,14.50
2022-09-30T19:28:46.213Z,14.50
2022-09-30T19:31:17.136Z,14.50
2022-09-30T19:33:54.526Z,14.50
2022-09-30T19:36:26.832Z,14.60
2022-09-30T19:39:10.443Z,14.60
2022-09-30T19:41:39.870Z,14.60
2022-09-30T19:44:07.837Z,14.60
2022-09-30T19:46:35.687Z,14.60
2022-09-30T19:49:03.704Z,14.60
2022-09-30T19:51:33.168Z,14.60
2022-09-30T19:54:07.138Z,14.60
2022-09-30T19:56:36.150Z,14.60
2022-09-30T19:59:04.647Z,14.60
2022-09-30T20:01:34.741Z,14.50
2022-09-30T20:04:05.567Z,14.60
2022-09-30T20:06:34.876Z,14.60
2022-09-30T20:09:06.897Z,14.60
2022-09-30T20:11:36.946Z,14.60
2022-09-30T20:14:24.696Z,14.60
2022-09-30T20:16:52.900Z,14.60
2022-09-30T20:19:22.381Z,14.60
2022-09-30T20:21:51.090Z,14.60
2022-09-30T20:24:20.912Z,14.70
2022-09-30T20:26:50.191Z,14.60
2022-09-30T20:29:20.542Z,14.60
2022-09-30T20:31:49.426Z,14.70
2022-09-30T20:34:19.593Z,14.70
2022-09-30T20:36:48.429Z,14.70
2022-09-30T20:39:16.421Z,14.70
2022-09-30T20:41:46.945Z,14.70
2022-09-30T20:44:16.113Z,14.70
2022-09-30T20:46:43.980Z,14.60
2022-09-30T20:49:11.961Z,14.70
2022-09-30T20:51:39.805Z,14.70
2022-09-30T20:54:07.689Z,14.70
2022-09-30T20:57:05.416Z,14.70
2022-09-30T20:59:25.386Z,14.70
2022-09-30T21:01:53.482Z,14.70
2022-09-30T21:04:21.356Z,14.70
2022-09-30T21:06:49.299Z,14.60
2022-09-30T21:09:17.649Z,14.70
2022-09-30T21:11:45.513Z,14.70
2022-09-30T21:14:13.393Z,14.70
2022-09-30T21:16:42.781Z,14.70
2022-09-30T21:19:11.314Z,14.70
2022-09-30T21:21:39.366Z,14.70
2022-09-30T21:24:07.340Z,14.70
2022-09-30T21:26:35.573Z,14.70
2022-09-30T21:29:03.603Z,14.70
2022-09-30T21:31:33.331Z,14.70
2022-09-30T21:34:03.624Z,14.70
2022-09-30T21:36:32.177Z,14.70
2022-09-30T21:39:02.357Z,14.70
2022-09-30T21:41:32.094Z,14.70
2022-09-30T21:44:00.393Z,14.70
2022-09-30T21:46:29.593Z,14.60
2022-09-30T21:49:06.808Z,14.60
2022-09-30T21:51:35.531Z,14.60
2022-09-30T21:54:03.859Z,14.60
2022-09-30T21:56:31.713Z,14.70
2022-09-30T21:58:59.721Z,14.60
2022-09-30T22:01:27.649Z,14.60
2022-09-30T22:03:55.565Z,14.60
2022-09-30T22:06:25.931Z,14.50
2022-09-30T22:08:53.768Z,14.50
2022-09-30T22:11:25.311Z,14.50
2022-09-30T22:13:55.103Z,14.40
2022-09-30T22:16:26.107Z,14.30
2022-09-30T22:18:54.651Z,14.30
2022-09-30T22:21:24.166Z,14.30
2022-09-30T22:23:52.907Z,14.20
2022-09-30T22:26:22.923Z,14.20
2022-09-30T22:28:55.991Z,14.20
2022-09-30T22:31:26.895Z,14.10
2022-09-30T22:34:14.203Z,14.10
2022-09-30T22:37:01.092Z,14.00
2022-09-30T22:39:29.415Z,14.00
2022-09-30T22:41:58.837Z,13.90
2022-09-30T22:44:29.070Z,13.90
2022-09-30T22:46:57.691Z,13.80
2022-09-30T22:49:25.957Z,13.80
2022-09-30T22:51:56.846Z,13.80
2022-09-30T22:54:26.109Z,13.70
2022-09-30T22:56:54.995Z,13.70
2022-09-30T22:59:24.074Z,13.70
2022-09-30T23:01:52.534Z,13.70
2022-09-30T23:04:21.018Z,13.60
2022-09-30T23:06:49.957Z,13.60
2022-09-30T23:09:20.749Z,13.60
2022-09-30T23:11:54.130Z,13.60
2022-09-30T23:14:22.735Z,13.60
2022-09-30T23:16:51.464Z,13.50
2022-09-30T23:19:19.891Z,13.60
2022-09-30T23:21:47.887Z,13.50
2022-09-30T23:24:15.839Z,13.50
2022-09-30T23:26:45.010Z,13.50
2022-09-30T23:29:14.508Z,13.50
2022-09-30T23:31:43.012Z,13.50
2022-09-30T23:34:11.095Z,13.40
2022-09-30T23:36:39.252Z,13.40
2022-09-30T23:39:12.501Z,13.40
2022-09-30T23:41:40.524Z,13.40
2022-09-30T23:44:10.047Z,13.40
2022-09-30T23:46:38.025Z,13.40
2022-09-30T23:49:05.903Z,13.40
2022-09-30T23:51:34.261Z,13.40
2022-09-30T23:54:02.956Z,13.30
2022-09-30T23:56:32.288Z,13.30
2022-09-30T23:59:00.279Z,13.30
